Gonzales, LA

7:36 AM CDT on April 25, 2017 (GMT -0500)
Gonzales

Weather History for KL38 - November, 2012

Change the Weather History Date:

Saturday, November 17, 2012

  Actual Average (KBTR) Record (KBTR)
Temperature  
Mean Temperature 54 °F -  
Max Temperature 68 °F 70 °F 86 °F (1921)
Min Temperature 39 °F 48 °F 28 °F (1920)
Degree Days  
Heating Degree Days 12    
Growing Degree Days 4 (Base 50)    
Moisture  
Dew Point 40 °F    
Average Humidity 69    
Maximum Humidity 99    
Minimum Humidity 33    
Precipitation  
Precipitation 0.00 in - - ()
Sea Level Pressure  
Sea Level Pressure 30.30 in    
Wind  
Wind Speed 2 mph ()    
Max Wind Speed 9 mph    
Max Gust Speed -    
Visibility 10.0 miles    
Events      
Averages and records for this station are not official NWS values.
T = Trace of Precipitation, MM = Missing Value Source: Averaged Metar Reports

Daily Weather History Graph

Daily Weather History Graph

Search for Another Location

Airport or City:

Trip Planner

Search our weather history database for the weather conditions in past years. The results will help you decide how hot, cold, wet, or windy it might be!

Date:

Astronomy

Nov. 17, 2012 Rise Set
Actual Time 6:31 AM CST 5:06 PM CST
Civil Twilight 6:05 AM CST 5:31 PM CST
Nautical Twilight 5:36 AM CST 6:00 PM CST
Astronomical Twilight 5:08 AM CST 6:29 PM CST
Moon 10:15 AM CST (11/17) 9:15 PM CST (11/17)
Length of Visible Light 11h 25m
Length of Day
10h 34m
Waxing Crescent, 20% of the Moon is Illuminated
Nov 17
Waxing Crescent
Nov 20
First Quarter
Nov 28
Full
Dec 6
Last Quarter
Dec 13
New

Hourly Weather History & Observations

Time (CST) Temp. Dew Point Humidity Pressure Visibility Wind Dir Wind Speed Gust Speed Precip Events Conditions
12:15 AM 47.8 °F 38.5 °F 70% 30.31 in 10.0 mi North 4.6 mph - N/A   Clear
12:35 AM 48.4 °F 38.5 °F 69% 30.30 in 10.0 mi North 3.5 mph - N/A   Clear
12:55 AM 47.8 °F 38.3 °F 70% 30.31 in 10.0 mi Calm Calm - N/A   Clear
1:15 AM 47.5 °F 38.3 °F 70% 30.30 in 10.0 mi Calm Calm - N/A   Clear
1:35 AM 45.3 °F 38.3 °F 76% 30.30 in 10.0 mi Calm Calm - N/A   Clear
1:55 AM 46.0 °F 38.1 °F 74% 30.30 in 10.0 mi Calm Calm - N/A   Clear
2:15 AM 44.8 °F 37.9 °F 77% 30.30 in 10.0 mi Calm Calm - N/A   Clear
2:35 AM 45.0 °F 37.9 °F 76% 30.30 in 10.0 mi Calm Calm - N/A   Clear
2:55 AM 45.3 °F 37.9 °F 75% 30.29 in 10.0 mi Calm Calm - N/A   Clear
3:15 AM 42.1 °F 39.9 °F 92% 30.29 in 10.0 mi Calm Calm - N/A   Clear
3:35 AM 41.9 °F 39.0 °F 90% 30.29 in 10.0 mi Calm Calm - N/A   Clear
3:55 AM 41.9 °F 38.7 °F 88% 30.29 in 10.0 mi Calm Calm - N/A   Clear
4:15 AM 41.4 °F 38.3 °F 89% 30.30 in 10.0 mi Calm Calm - N/A   Clear
4:35 AM 41.0 °F 39.2 °F 93% 30.30 in 10.0 mi Calm Calm - N/A   Clear
4:55 AM 40.8 °F 39.2 °F 94% 30.30 in 10.0 mi Calm Calm - N/A   Clear
5:15 AM 41.0 °F 38.7 °F 91% 30.30 in 10.0 mi Calm Calm - N/A   Clear
5:35 AM 40.5 °F 39.0 °F 95% 30.31 in 10.0 mi North - - N/A   Clear
5:55 AM 39.6 °F 38.5 °F 96% 30.31 in 10.0 mi Calm Calm - N/A   Clear
6:15 AM 39.2 °F 38.3 °F 97% 30.32 in 10.0 mi North - - N/A   Clear
6:35 AM 39.2 °F 38.3 °F 97% 30.32 in 10.0 mi North - - N/A   Clear
6:55 AM 39.4 °F 38.3 °F 96% 30.33 in 10.0 mi Calm Calm - N/A   Clear
7:15 AM 41.4 °F 37.8 °F 87% 30.34 in 10.0 mi Calm Calm - N/A   Clear
7:35 AM 44.6 °F 37.8 °F 77% 30.34 in 10.0 mi Calm Calm - N/A   Clear
7:55 AM 46.8 °F 38.3 °F 72% 30.34 in 10.0 mi NNE 3.5 mph - N/A   Clear
8:15 AM 48.4 °F 38.1 °F 68% 30.35 in 10.0 mi Calm Calm - N/A   Clear
8:35 AM 50.2 °F 38.1 °F 63% 30.36 in 10.0 mi NE 5.8 mph - N/A   Clear
8:55 AM 52.2 °F 38.8 °F 60% 30.36 in 10.0 mi North - - N/A   Clear
9:15 AM 53.8 °F 38.7 °F 57% 30.36 in 10.0 mi NE 5.8 mph - N/A   Clear
9:35 AM 56.1 °F 39.6 °F 54% 30.37 in 10.0 mi NNE 3.5 mph - N/A   Clear
9:55 AM 57.4 °F 39.2 °F 51% 30.37 in 10.0 mi North 4.6 mph - N/A   Clear
10:15 AM 59.5 °F 39.0 °F 47% 30.36 in 10.0 mi ENE 5.8 mph - N/A   Clear
10:35 AM 60.8 °F 39.0 °F 45% 30.36 in 10.0 mi NNE 5.8 mph - N/A   Clear
11:55 AM 64.6 °F 39.6 °F 40% 30.32 in 10.0 mi North 4.6 mph - N/A   Clear
12:15 PM 65.5 °F 39.0 °F 38% 30.31 in 10.0 mi East 4.6 mph - N/A   Clear
12:35 PM 66.4 °F 37.9 °F 35% 30.31 in 10.0 mi NE 6.9 mph - N/A   Clear
12:55 PM 66.9 °F 39.0 °F 36% 30.30 in 10.0 mi Calm Calm - N/A   Clear
1:15 PM 67.1 °F 39.4 °F 36% 30.29 in 10.0 mi Calm Calm - N/A   Clear
1:35 PM 67.5 °F 38.8 °F 35% 30.28 in 10.0 mi North 9.2 mph - N/A   Clear
1:55 PM 67.8 °F 39.7 °F 36% 30.27 in 10.0 mi North 5.8 mph - N/A   Clear
2:15 PM 68.2 °F 37.8 °F 33% 30.27 in 10.0 mi NNE 3.5 mph - N/A   Clear
2:35 PM 68.2 °F 37.8 °F 33% 30.26 in 10.0 mi North 6.9 mph - N/A   Clear
2:55 PM 68.2 °F 37.6 °F 33% 30.26 in 10.0 mi North 4.6 mph - N/A   Clear
3:15 PM 68.5 °F 38.7 °F 34% 30.26 in 10.0 mi NNE 4.6 mph - N/A   Clear
3:35 PM 68.0 °F 37.6 °F 33% 30.25 in 10.0 mi NNE 3.5 mph - N/A   Clear
3:55 PM 67.6 °F 37.2 °F 33% 30.25 in 10.0 mi NNE 4.6 mph - N/A   Clear
4:15 PM 67.1 °F 38.7 °F 35% 30.26 in 10.0 mi North 3.5 mph - N/A   Clear
4:35 PM 66.4 °F 38.5 °F 36% 30.26 in 10.0 mi NNE 5.8 mph - N/A   Clear
4:55 PM 65.3 °F 37.9 °F 36% 30.26 in 10.0 mi NNE 3.5 mph - N/A   Clear
5:15 PM 60.6 °F 41.0 °F 48% 30.27 in 10.0 mi Calm Calm - N/A   Clear
5:35 PM 57.0 °F 43.7 °F 61% 30.27 in 10.0 mi Calm Calm - N/A   Clear
5:55 PM 55.0 °F 43.2 °F 64% 30.27 in 10.0 mi Calm Calm - N/A   Clear
6:15 PM 53.6 °F 43.7 °F 69% 30.28 in 10.0 mi Calm Calm - N/A   Clear
6:35 PM 52.7 °F 44.2 °F 73% 30.28 in 10.0 mi Calm Calm - N/A   Clear
6:55 PM 51.3 °F 44.8 °F 78% 30.28 in 10.0 mi Calm Calm - N/A   Clear
7:15 PM 50.5 °F 44.2 °F 79% 30.29 in 10.0 mi Calm Calm - N/A   Clear
7:35 PM 49.8 °F 44.4 °F 82% 30.30 in 10.0 mi Calm Calm - N/A   Clear
7:55 PM 48.7 °F 44.1 °F 84% 30.30 in 10.0 mi Calm Calm - N/A   Clear
8:15 PM 48.2 °F 44.1 °F 86% 30.31 in 10.0 mi Calm Calm - N/A   Clear
8:35 PM 47.3 °F 44.6 °F 90% 30.31 in 10.0 mi Calm Calm - N/A   Clear
8:55 PM 46.6 °F 43.9 °F 90% 30.31 in 10.0 mi Calm Calm - N/A   Clear
9:15 PM 46.6 °F 43.9 °F 90% 30.32 in 10.0 mi Calm Calm - N/A   Clear
9:35 PM 45.7 °F 43.7 °F 93% 30.32 in 10.0 mi Calm Calm - N/A   Clear
9:55 PM 45.3 °F 43.7 °F 94% 30.32 in 10.0 mi Calm Calm - N/A   Clear
10:15 PM 45.1 °F 43.7 °F 95% 30.32 in 10.0 mi Calm Calm - N/A   Clear
10:35 PM 45.5 °F 43.9 °F 94% 30.32 in 10.0 mi Calm Calm - N/A   Clear
10:55 PM 44.8 °F 43.7 °F 96% 30.32 in 10.0 mi Calm Calm - N/A   Clear
11:15 PM 44.2 °F 43.0 °F 95% 30.32 in 10.0 mi Calm Calm - N/A   Clear
11:35 PM 44.6 °F 43.2 °F 95% 30.32 in 10.0 mi Calm Calm - N/A   Clear
11:55 PM 43.0 °F 42.6 °F 99% 30.32 in 7.0 mi Calm Calm - N/A   Clear